createdAt,value
2022-11-29T00:03:07.772Z,88.57
2022-11-29T00:08:10.840Z,88.63
2022-11-29T00:13:13.756Z,88.48
2022-11-29T00:18:17.866Z,88.56
2022-11-29T00:23:20.636Z,88.50
2022-11-29T00:28:23.420Z,88.73
2022-11-29T00:33:27.805Z,88.47
2022-11-29T00:38:30.573Z,88.68
2022-11-29T00:43:33.468Z,88.64
2022-11-29T00:48:38.100Z,88.44
2022-11-29T00:53:41.367Z,88.34
2022-11-29T00:58:44.332Z,88.49
2022-11-29T01:03:48.435Z,88.75
2022-11-29T01:08:51.211Z,88.48
2022-11-29T01:13:57.226Z,88.34
2022-11-29T01:19:01.590Z,88.85
2022-11-29T01:24:04.639Z,88.51
2022-11-29T01:29:07.790Z,88.73
2022-11-29T01:34:12.574Z,88.49
2022-11-29T01:39:15.409Z,88.78
2022-11-29T01:44:55.520Z,88.63
2022-11-29T01:50:00.391Z,88.91
2022-11-29T01:55:06.756Z,88.05
2022-11-29T02:00:13.169Z,88.01
2022-11-29T02:05:19.616Z,88.73
2022-11-29T02:10:30.847Z,88.91
2022-11-29T02:15:42.530Z,88.86
2022-11-29T02:21:04.455Z,88.83
2022-11-29T02:26:26.818Z,89.02
2022-11-29T02:31:50.348Z,88.92
2022-11-29T02:37:11.678Z,88.91
2022-11-29T02:42:55.599Z,89.08
2022-11-29T02:48:15.482Z,89.11
2022-11-29T02:53:27.709Z,89.14
2022-11-29T02:58:37.841Z,88.96
2022-11-29T03:03:47.540Z,89.07
2022-11-29T03:09:00.644Z,89.20
2022-11-29T03:14:15.535Z,88.84
2022-11-29T03:19:36.036Z,88.90
2022-11-29T03:24:46.244Z,89.08
2022-11-29T03:29:55.175Z,88.74
2022-11-29T03:35:07.971Z,88.99
2022-11-29T03:40:13.809Z,89.16
2022-11-29T03:45:24.688Z,89.00
2022-11-29T03:50:34.688Z,88.96
2022-11-29T03:55:53.547Z,88.84
2022-11-29T04:01:31.796Z,88.94
2022-11-29T04:06:48.524Z,88.84
2022-11-29T04:12:22.059Z,88.69
2022-11-29T04:17:43.524Z,88.70
2022-11-29T04:23:26.047Z,89.01
2022-11-29T04:29:09.648Z,89.15
2022-11-29T04:34:47.409Z,88.82
2022-11-29T04:40:02.906Z,89.13
2022-11-29T04:45:54.689Z,89.02
2022-11-29T04:51:09.996Z,89.02
2022-11-29T04:56:21.451Z,89.03
2022-11-29T05:01:34.009Z,89.02
2022-11-29T05:06:45.955Z,88.92
2022-11-29T05:11:58.838Z,88.67
2022-11-29T05:17:22.339Z,88.94
2022-11-29T05:22:32.645Z,89.17
2022-11-29T05:27:47.007Z,88.94
2022-11-29T05:32:58.550Z,89.20
2022-11-29T05:38:09.465Z,88.97
2022-11-29T05:43:26.167Z,89.01
2022-11-29T05:48:44.948Z,89.35
2022-11-29T05:53:58.471Z,88.91
2022-11-29T05:59:05.132Z,89.24
2022-11-29T06:04:17.133Z,89.03
2022-11-29T06:09:27.235Z,89.27
2022-11-29T06:14:59.092Z,89.34
2022-11-29T06:20:26.332Z,89.58
2022-11-29T06:25:47.068Z,89.34
2022-11-29T06:31:00.613Z,89.26
2022-11-29T06:36:16.884Z,89.53
2022-11-29T06:41:21.839Z,89.41
2022-11-29T06:46:35.350Z,89.69
2022-11-29T06:51:49.308Z,89.54
2022-11-29T06:57:01.280Z,89.34
2022-11-29T07:02:22.357Z,89.44
2022-11-29T07:07:27.274Z,89.27
2022-11-29T07:12:30.697Z,89.50
2022-11-29T07:17:44.396Z,89.75
2022-11-29T07:22:59.576Z,89.40
2022-11-29T07:28:12.361Z,89.76
2022-11-29T07:33:19.917Z,89.86
2022-11-29T07:38:31.590Z,89.69
2022-11-29T07:43:46.597Z,89.80
2022-11-29T07:48:49.344Z,89.29
2022-11-29T07:53:53.904Z,89.67
2022-11-29T07:58:56.696Z,89.66
2022-11-29T08:03:59.621Z,89.01
2022-11-29T08:09:05.395Z,89.55
2022-11-29T08:14:08.126Z,89.88
2022-11-29T08:19:10.872Z,89.88
2022-11-29T08:24:15.035Z,89.38
2022-11-29T08:29:18.229Z,89.59
2022-11-29T08:34:21.438Z,89.68
2022-11-29T08:39:25.531Z,89.37
2022-11-29T08:44:28.427Z,89.27
2022-11-29T08:49:31.211Z,89.80
2022-11-29T08:54:35.727Z,89.97
2022-11-29T08:59:38.474Z,89.74
2022-11-29T09:04:41.246Z,89.81
2022-11-29T09:09:45.381Z,89.99
2022-11-29T09:14:48.164Z,89.98
2022-11-29T09:19:50.982Z,89.95
2022-11-29T09:24:55.071Z,90.64
2022-11-29T09:29:57.864Z,90.35
2022-11-29T09:35:00.618Z,90.30
2022-11-29T09:40:05.773Z,90.05
2022-11-29T09:45:11.822Z,90.21
2022-11-29T09:50:25.477Z,90.12
2022-11-29T09:55:48.382Z,90.05
2022-11-29T10:00:53.127Z,90.36
2022-11-29T10:05:59.629Z,90.16
2022-11-29T10:11:14.763Z,89.72
2022-11-29T10:16:25.954Z,90.23
2022-11-29T10:21:35.835Z,90.21
2022-11-29T10:26:40.103Z,89.74
2022-11-29T10:31:49.181Z,89.78
2022-11-29T10:36:54.715Z,90.35
2022-11-29T10:42:03.762Z,90.13
2022-11-29T10:47:10.903Z,90.23
2022-11-29T10:52:20.519Z,89.67
2022-11-29T10:57:25.229Z,89.81
2022-11-29T11:02:28.632Z,89.94
2022-11-29T11:07:35.099Z,89.20
2022-11-29T11:12:39.305Z,89.34
2022-11-29T11:17:56.531Z,89.83
2022-11-29T11:23:02.112Z,89.84
2022-11-29T11:28:20.403Z,89.10
2022-11-29T11:33:27.012Z,89.51
2022-11-29T11:38:30.496Z,89.77
2022-11-29T11:43:35.711Z,90.09
2022-11-29T11:48:41.891Z,90.17
2022-11-29T11:53:52.126Z,90.19
2022-11-29T11:58:58.826Z,89.29
2022-11-29T12:04:06.771Z,90.11
2022-11-29T12:09:19.311Z,89.93
2022-11-29T12:14:34.111Z,89.84
2022-11-29T12:19:44.205Z,89.84
2022-11-29T12:24:56.080Z,89.63
2022-11-29T12:30:00.254Z,89.93
2022-11-29T12:35:35.025Z,90.22
2022-11-29T12:40:47.400Z,90.59
2022-11-29T12:45:58.526Z,90.02
2022-11-29T12:51:09.433Z,89.98
2022-11-29T12:56:16.942Z,90.20
2022-11-29T13:01:30.979Z,89.72
2022-11-29T13:06:40.427Z,89.77
2022-11-29T13:11:53.897Z,90.18
2022-11-29T13:17:02.151Z,90.16
2022-11-29T13:22:11.815Z,90.08
2022-11-29T13:27:18.776Z,90.09
2022-11-29T13:32:35.131Z,90.38
2022-11-29T13:37:48.366Z,90.23
2022-11-29T13:43:02.200Z,90.78
2022-11-29T13:48:27.850Z,90.87
2022-11-29T13:53:48.614Z,90.33
2022-11-29T13:58:54.713Z,91.90
2022-11-29T14:04:07.919Z,90.86
2022-11-29T14:09:26.881Z,91.95
2022-11-29T14:14:35.264Z,90.97
2022-11-29T14:19:39.435Z,91.03
2022-11-29T14:24:43.186Z,90.19
2022-11-29T14:29:54.555Z,90.29
2022-11-29T14:35:04.709Z,90.33
2022-11-29T14:40:21.858Z,90.42
2022-11-29T14:45:27.872Z,90.30
2022-11-29T14:50:37.504Z,90.31
2022-11-29T14:55:40.395Z,90.35
2022-11-29T15:01:09.859Z,90.18
2022-11-29T15:06:24.037Z,90.35
2022-11-29T15:11:43.078Z,90.40
2022-11-29T15:16:59.412Z,90.62
2022-11-29T15:22:11.697Z,90.66
2022-11-29T15:27:14.527Z,90.40
2022-11-29T15:32:23.391Z,90.50
2022-11-29T15:37:44.484Z,90.02
2022-11-29T15:42:50.748Z,90.13
2022-11-29T15:47:54.044Z,90.15
2022-11-29T15:53:02.058Z,90.07
2022-11-29T15:58:08.856Z,90.68
2022-11-29T16:03:20.930Z,90.77
2022-11-29T16:08:35.408Z,90.47
2022-11-29T16:13:40.381Z,90.65
2022-11-29T16:18:44.680Z,90.58
2022-11-29T16:23:49.196Z,92.06
2022-11-29T16:28:54.391Z,91.61
2022-11-29T16:33:57.746Z,91.07
2022-11-29T16:39:06.551Z,91.06
2022-11-29T16:44:45.446Z,91.71
2022-11-29T16:50:10.644Z,90.68
2022-11-29T16:55:13.772Z,92.49
2022-11-29T17:00:26.047Z,91.87
2022-11-29T17:05:30.359Z,91.30
2022-11-29T17:10:33.271Z,91.38
2022-11-29T17:15:36.096Z,90.88
2022-11-29T17:20:40.297Z,90.73
2022-11-29T17:25:43.132Z,90.62
2022-11-29T17:30:45.987Z,91.73
2022-11-29T17:35:50.138Z,91.14
2022-11-29T17:40:52.961Z,91.47
2022-11-29T17:45:55.769Z,90.66
2022-11-29T17:51:01.864Z,90.85
2022-11-29T17:56:06.204Z,91.25
2022-11-29T18:01:11.172Z,91.41
2022-11-29T18:06:17.428Z,91.62
2022-11-29T18:11:21.965Z,90.80
2022-11-29T18:16:26.623Z,90.78
2022-11-29T18:21:31.519Z,90.93
2022-11-29T18:26:36.200Z,90.87
2022-11-29T18:31:41.023Z,90.79
2022-11-29T18:36:47.358Z,90.81
2022-11-29T18:41:51.543Z,90.84
2022-11-29T18:46:54.374Z,90.97
2022-11-29T18:51:58.475Z,91.09
2022-11-29T18:57:01.332Z,90.93
2022-11-29T19:02:04.118Z,90.97
2022-11-29T19:07:08.271Z,91.11
2022-11-29T19:12:11.044Z,91.22
2022-11-29T19:17:13.805Z,90.97
2022-11-29T19:22:18.010Z,91.29
2022-11-29T19:27:21.235Z,91.25
2022-11-29T19:32:24.008Z,91.43
2022-11-29T19:37:28.206Z,91.96
2022-11-29T19:42:31.089Z,91.96
2022-11-29T19:47:33.894Z,91.80
2022-11-29T19:52:38.184Z,92.07
2022-11-29T19:57:40.993Z,92.21
2022-11-29T20:02:43.862Z,91.88
2022-11-29T20:07:48.125Z,92.26
2022-11-29T20:12:51.155Z,92.51
2022-11-29T20:17:54.349Z,92.54
2022-11-29T20:22:58.699Z,91.89
2022-11-29T20:28:01.480Z,91.59
2022-11-29T20:33:05.100Z,91.56
2022-11-29T20:38:19.964Z,91.86
2022-11-29T20:43:38.888Z,92.12
2022-11-29T20:48:42.136Z,91.56
2022-11-29T20:53:48.428Z,91.61
2022-11-29T20:58:51.388Z,91.88
2022-11-29T21:03:54.256Z,91.84
2022-11-29T21:08:58.474Z,91.50
2022-11-29T21:14:03.969Z,91.02
2022-11-29T21:19:07.279Z,91.40
2022-11-29T21:24:27.833Z,91.55
2022-11-29T21:29:31.225Z,91.40
2022-11-29T21:34:34.807Z,91.37
2022-11-29T21:39:39.236Z,91.23
2022-11-29T21:44:42.008Z,91.27
2022-11-29T21:49:46.282Z,90.78
2022-11-29T21:54:50.684Z,91.08
2022-11-29T21:59:53.747Z,91.18
2022-11-29T22:04:56.546Z,91.39
2022-11-29T22:10:08.557Z,91.36
2022-11-29T22:15:19.055Z,91.13
2022-11-29T22:20:24.390Z,91.12
2022-11-29T22:25:28.535Z,91.36
2022-11-29T22:30:31.276Z,91.75
2022-11-29T22:35:34.024Z,91.36
2022-11-29T22:40:38.304Z,91.85
2022-11-29T22:45:41.075Z,91.26
2022-11-29T22:50:43.841Z,90.81
2022-11-29T22:55:47.924Z,90.72
2022-11-29T23:00:50.728Z,90.68
2022-11-29T23:05:53.554Z,90.75
2022-11-29T23:10:58.236Z,90.84
2022-11-29T23:16:01.595Z,90.23
2022-11-29T23:21:07.319Z,91.02
2022-11-29T23:26:18.427Z,90.37
2022-11-29T23:31:22.465Z,90.72
2022-11-29T23:36:25.242Z,90.22
2022-11-29T23:41:29.325Z,90.50
2022-11-29T23:46:32.160Z,90.39
2022-11-29T23:51:34.947Z,90.32
2022-11-29T23:56:39.083Z,90.11
